Time;durP1;ratioP1;P1;durP2;ratioP2;P2;SDS_P1;SDS_P2;PMS_P1;PMS_P2;Temp;Humidity;BMP_temperature;BMP_pressure;BME280_temperature;BME280_humidity;BME280_pressure;Samples;Min_cycle;Max_cycle;Signal;HPM_P1;HPM_P2
2023/03/20 00:01:18;;;;;;;45.72;21.55;;;;;;;11.52;66.36;100028.56;4992944;28;20057;-79
2023/03/20 00:03:45;;;;;;;40.40;21.48;;;;;;;11.57;66.04;100023.00;4992671;28;20085;-79
2023/03/20 00:06:19;;;;;;;46.92;22.30;;;;;;;11.59;66.40;100029.06;4992167;28;20061;-80
2023/03/20 00:08:47;;;;;;;41.78;20.95;;;;;;;11.63;66.15;100022.69;4992216;28;20161;-79
2023/03/20 00:11:29;;;;;;;44.50;21.92;;;;;;;11.63;66.71;100022.69;4992469;28;20061;-79
2023/03/20 00:13:59;;;;;;;45.33;22.33;;;;;;;11.70;66.39;100025.81;4992690;28;20149;-80
2023/03/20 00:16:31;;;;;;;44.42;23.08;;;;;;;11.72;66.46;100031.84;4992049;28;20385;-80
2023/03/20 00:19:00;;;;;;;43.58;23.08;;;;;;;11.74;66.26;100027.34;4992614;28;20062;-80
2023/03/20 00:21:27;;;;;;;48.78;23.10;;;;;;;11.78;66.28;100035.91;4975214;28;20097;-81
2023/03/20 00:23:55;;;;;;;43.20;23.48;;;;;;;11.79;66.27;100041.09;4992431;28;20065;-80
2023/03/20 00:26:34;;;;;;;51.45;25.05;;;;;;;11.78;67.06;100044.66;4991969;28;20097;-80
2023/03/20 00:29:03;;;;;;;46.53;23.17;;;;;;;11.83;66.25;100047.91;4974806;28;20086;-79
2023/03/20 00:31:34;;;;;;;46.38;24.83;;;;;;;11.82;66.20;100040.91;4974748;28;20051;-80
2023/03/20 00:34:08;;;;;;;47.08;23.88;;;;;;;11.81;66.34;100035.75;4992013;28;20509;-80
2023/03/20 00:36:35;;;;;;;43.53;23.17;;;;;;;11.80;66.04;100037.50;4973805;28;20550;-80
2023/03/20 00:39:03;;;;;;;48.72;24.75;;;;;;;11.77;66.06;100028.94;4992133;28;20750;-80
2023/03/20 00:41:35;;;;;;;46.25;24.27;;;;;;;11.72;66.44;100029.19;4992009;28;20050;-80
2023/03/20 00:44:11;;;;;;;51.08;24.08;;;;;;;11.68;66.49;100028.53;4991913;28;20495;-79
2023/03/20 00:46:38;;;;;;;44.60;23.20;;;;;;;11.65;66.26;100018.16;4991214;28;20081;-80
2023/03/20 00:49:05;;;;;;;53.80;24.38;;;;;;;11.63;66.50;100022.69;4991603;28;20065;-80
2023/03/20 00:51:31;;;;;;;44.75;23.75;;;;;;;11.59;66.47;100019.34;4991869;28;20054;-79
2023/03/20 00:53:58;;;;;;;48.80;24.13;;;;;;;11.57;66.52;100015.97;4991702;28;20100;-80
2023/03/20 00:56:32;;;;;;;46.78;23.58;;;;;;;11.53;67.23;100009.16;4991312;28;20064;-80
2023/03/20 00:59:03;;;;;;;43.60;23.30;;;;;;;11.51;66.69;100011.03;4991878;28;20069;-80
2023/03/20 01:01:30;;;;;;;42.35;21.65;;;;;;;11.52;66.41;100012.75;4991646;28;20499;-79
2023/03/20 01:03:58;;;;;;;40.42;20.75;;;;;;;11.50;66.47;100001.41;4991404;28;20470;-80
2023/03/20 01:06:25;;;;;;;50.35;23.23;;;;;;;11.47;66.40;99998.94;4973830;28;20046;-80
2023/03/20 01:08:51;;;;;;;43.55;21.42;;;;;;;11.46;66.45;100002.53;4990869;28;20148;-81
2023/03/20 01:11:22;;;;;;;43.00;21.85;;;;;;;11.43;66.84;100006.19;4974375;28;20082;-79
2023/03/20 01:13:51;;;;;;;37.90;21.23;;;;;;;11.45;66.67;100019.28;4974318;28;20058;-81
2023/03/20 01:16:21;;;;;;;46.05;21.73;;;;;;;11.44;67.16;100026.34;4990982;28;20058;-80
2023/03/20 01:18:49;;;;;;;47.00;22.98;;;;;;;11.47;67.07;100038.50;4991069;28;20075;-80
2023/03/20 01:21:17;;;;;;;49.38;23.73;;;;;;;11.50;66.94;100035.69;4991119;28;20503;-81
2023/03/20 01:23:44;;;;;;;38.75;21.17;;;;;;;11.51;67.10;100049.75;4991315;28;20090;-80
2023/03/20 01:26:50;;;;;;;44.13;22.98;;;;;;;11.49;67.83;100052.44;4991025;28;20562;-81
2023/03/20 01:29:20;;;;;;;41.35;22.17;;;;;;;11.56;67.31;100051.16;4991194;28;20670;-81
2023/03/20 01:31:48;;;;;;;40.50;21.95;;;;;;;11.58;67.23;100057.19;4991196;28;20809;-80
2023/03/20 01:34:18;;;;;;;50.80;23.45;;;;;;;11.60;67.08;100057.13;4991497;28;20138;-80
2023/03/20 01:36:51;;;;;;;45.15;22.67;;;;;;;11.60;67.49;100051.84;5033994;22;20536;-79
2023/03/20 01:39:20;;;;;;;39.22;21.05;;;;;;;11.62;67.24;100054.41;5029189;28;20064;-79
2023/03/20 01:41:48;;;;;;;38.63;20.50;;;;;;;11.64;67.21;100058.66;5011645;28;20510;-79
2023/03/20 01:44:21;;;;;;;42.92;22.05;;;;;;;11.65;67.08;100047.16;5029468;28;20084;-79
2023/03/20 01:46:48;;;;;;;43.53;22.75;;;;;;;11.67;67.07;100050.53;5028475;28;20049;-79
2023/03/20 01:49:18;;;;;;;46.17;22.70;;;;;;;11.67;67.30;100055.81;5031307;28;20107;-79
2023/03/20 01:51:48;;;;;;;44.45;22.17;;;;;;;11.68;66.89;100054.03;5033331;28;20049;-79
2023/03/20 01:54:36;;;;;;;44.22;21.23;;;;;;;11.64;67.46;100052.50;5033485;28;20049;-79
2023/03/20 01:57:15;;;;;;;40.53;22.35;;;;;;;11.67;67.25;100058.44;5032489;28;20602;-79
2023/03/20 02:00:03;;;;;;;39.65;23.13;;;;;;;11.63;67.66;100054.31;5033295;28;20057;-80
2023/03/20 02:02:30;;;;;;;42.85;22.35;;;;;;;11.66;66.95;100040.94;5015857;28;20061;-79
2023/03/20 02:05:06;;;;;;;42.10;23.13;;;;;;;11.64;67.26;100047.25;5032912;28;20115;-79
2023/03/20 02:07:33;;;;;;;50.85;25.35;;;;;;;11.63;67.08;100045.53;5032622;28;20061;-79
2023/03/20 02:10:02;;;;;;;44.70;26.00;;;;;;;11.60;66.85;100041.31;5033027;28;20108;-79
2023/03/20 02:12:30;;;;;;;46.30;23.67;;;;;;;11.56;67.04;100047.69;5033182;28;20089;-80
2023/03/20 02:14:57;;;;;;;43.88;24.50;;;;;;;11.51;66.96;100042.66;5032735;28;20108;-79
2023/03/20 02:17:23;;;;;;;44.85;25.55;;;;;;;11.47;67.06;100042.00;5032434;28;20053;-79
2023/03/20 02:20:05;;;;;;;44.15;23.38;;;;;;;11.39;67.88;100049.47;5033045;28;20053;-79
2023/03/20 02:22:50;;;;;;;45.80;25.23;;;;;;;11.39;67.34;100043.34;5033027;28;20053;-79
2023/03/20 02:25:53;;;;;;;47.08;26.08;;;;;;;11.31;68.58;100047.28;5032767;28;20104;-79
2023/03/20 02:28:51;;;;;;;;;;;;;;;11.32;68.15;100048.09;5033034;28;20153;-79
2023/03/20 02:31:53;;;;;;;44.42;22.90;;;;;;;11.29;67.96;100054.41;5015578;28;19968;-79
2023/03/20 02:34:34;;;;;;;45.53;24.58;;;;;;;11.24;68.64;100043.28;5015925;28;20482;-79
2023/03/20 02:37:29;;;;;;;47.72;25.58;;;;;;;11.22;68.56;100047.78;5031728;28;20526;-79
2023/03/20 02:40:09;;;;;;;51.28;26.92;;;;;;;11.19;68.72;100047.94;5032986;28;20053;-79
2023/03/20 02:42:50;;;;;;;46.13;26.80;;;;;;;11.18;68.78;100038.34;5032735;28;20061;-79
2023/03/20 02:45:25;;;;;;;48.20;27.52;;;;;;;11.16;68.64;100027.91;5032057;28;20061;-79
2023/03/20 02:48:16;;;;;;;48.42;27.00;;;;;;;11.14;68.93;100035.00;5031945;28;21325;-79
2023/03/20 02:50:52;;;;;;;49.83;27.83;;;;;;;11.13;69.06;100035.97;5032270;28;20272;-79
2023/03/20 02:53:40;;;;;;;52.20;27.90;;;;;;;11.11;69.35;100035.22;5032204;28;20104;-79
2023/03/20 02:56:10;;;;;;;49.70;27.27;;;;;;;11.14;68.95;100039.44;5031861;28;20053;-80
2023/03/20 02:58:58;;;;;;;49.53;28.25;;;;;;;11.10;69.44;100036.13;5031868;28;20565;-79
2023/03/20 03:01:32;;;;;;;51.90;29.10;;;;;;;11.12;69.06;100039.53;5030814;28;20554;-79
2023/03/20 03:04:24;;;;;;;49.97;27.95;;;;;;;11.10;69.45;100033.47;5014494;28;20053;-79
2023/03/20 03:06:54;;;;;;;47.22;26.63;;;;;;;11.12;68.76;100039.53;5013370;28;20065;-79
2023/03/20 03:09:30;;;;;;;46.25;27.17;;;;;;;11.10;69.57;100038.75;5031741;28;20569;-79
2023/03/20 03:12:04;;;;;;;47.90;27.02;;;;;;;11.12;69.29;100034.25;5014188;28;20646;-79
2023/03/20 03:14:41;;;;;;;50.17;26.13;;;;;;;11.12;69.55;100036.03;5031721;28;20057;-78
2023/03/20 03:17:09;;;;;;;47.10;26.30;;;;;;;11.14;68.90;100028.91;5031068;28;20058;-79
2023/03/20 03:19:40;;;;;;;43.65;25.88;;;;;;;11.14;69.11;100028.91;5031848;28;20054;-79
2023/03/20 03:22:07;;;;;;;42.58;25.27;;;;;;;11.14;68.91;100024.47;5014139;28;20089;-79
2023/03/20 03:24:42;;;;;;;42.00;24.95;;;;;;;11.12;69.45;100021.09;5031598;28;20076;-78
2023/03/20 03:27:20;;;;;;;43.67;24.88;;;;;;;11.08;69.57;100004.63;5030983;28;20516;-78
2023/03/20 03:29:52;;;;;;;41.83;23.92;;;;;;;11.11;69.12;99998.31;5014136;28;20112;-79
2023/03/20 03:32:28;;;;;;;39.20;24.30;;;;;;;11.07;69.41;100000.25;5031444;28;20512;-79
2023/03/20 03:34:56;;;;;;;37.83;22.23;;;;;;;11.10;68.93;100001.03;5031144;28;20119;-79
2023/03/20 03:37:38;;;;;;;37.40;21.27;;;;;;;11.08;69.38;100006.38;5030861;28;20100;-78
2023/03/20 03:40:44;;;;;;;44.10;23.42;;;;;;;11.08;69.61;100004.63;5031899;28;20053;-79
2023/03/20 03:43:22;;;;;;;37.33;20.83;;;;;;;11.12;69.19;99999.16;5028130;28;20088;-78
2023/03/20 03:45:56;;;;;;;36.20;22.13;;;;;;;11.12;69.31;100001.78;5030797;28;20145;-79
2023/03/20 03:48:29;;;;;;;36.70;21.73;;;;;;;11.12;69.06;100005.28;5031077;28;20095;-79
2023/03/20 03:51:01;;;;;;;34.78;18.58;;;;;;;11.13;68.66;100001.69;5031090;28;20054;-79
2023/03/20 03:53:35;;;;;;;30.55;17.75;;;;;;;11.13;68.83;100011.38;5031283;28;20057;-79
2023/03/20 03:56:06;;;;;;;28.25;17.27;;;;;;;11.14;68.48;100013.09;5030855;28;20053;-79
2023/03/20 03:58:41;;;;;;;23.38;14.63;;;;;;;11.13;68.60;100014.00;5030723;28;20605;-79
2023/03/20 04:01:13;;;;;;;29.17;15.43;;;;;;;11.14;68.23;100008.66;5031175;28;20077;-79
2023/03/20 04:04:05;;;;;;;25.92;15.43;;;;;;;11.14;68.14;100013.09;5031056;28;20057;-79
2023/03/20 04:06:32;;;;;;;19.55;11.90;;;;;;;11.18;67.69;100009.38;5030382;28;20568;-79
2023/03/20 04:08:58;;;;;;;19.08;11.85;;;;;;;11.17;67.55;100005.88;5013460;28;20822;-79
2023/03/20 04:11:27;;;;;;;20.15;11.18;;;;;;;11.18;67.60;100004.09;5030281;28;20504;-78
2023/03/20 04:13:54;;;;;;;23.55;12.15;;;;;;;11.18;67.37;99999.66;5013248;28;20061;-79
2023/03/20 04:16:23;;;;;;;22.45;13.02;;;;;;;11.18;67.44;100007.56;5030428;28;20088;-79
2023/03/20 04:18:50;;;;;;;24.60;13.45;;;;;;;11.19;67.29;100008.44;5030374;28;20081;-79
2023/03/20 04:21:17;;;;;;;24.83;13.23;;;;;;;11.18;67.16;99998.84;5030512;28;20049;-79
2023/03/20 04:23:44;;;;;;;19.92;11.43;;;;;;;11.19;67.11;99997.88;5030763;28;20054;-79
2023/03/20 04:26:10;;;;;;;18.98;11.05;;;;;;;11.18;66.98;99988.28;5030315;28;20049;-79
2023/03/20 04:28:37;;;;;;;17.85;10.95;;;;;;;11.17;66.98;99976.03;5030215;28;20115;-79
2023/03/20 04:31:03;;;;;;;18.55;11.18;;;;;;;11.16;66.94;99990.16;5030434;28;20053;-79
2023/03/20 04:33:30;;;;;;;22.92;12.32;;;;;;;11.14;66.78;99992.03;5030498;28;20142;-79
2023/03/20 04:35:56;;;;;;;18.88;11.30;;;;;;;11.13;66.78;99988.53;5029616;28;20081;-79
2023/03/20 04:38:23;;;;;;;22.42;11.93;;;;;;;11.12;66.78;99985.97;5030176;28;20057;-79
2023/03/20 04:40:49;;;;;;;20.65;11.02;;;;;;;11.13;66.84;99990.31;5030357;28;20054;-79
2023/03/20 04:43:16;;;;;;;21.52;11.77;;;;;;;11.10;66.69;99990.50;5030279;28;20058;-79
2023/03/20 04:45:43;;;;;;;19.65;11.13;;;;;;;11.10;66.63;99990.50;5029808;28;20050;-78
2023/03/20 04:48:09;;;;;;;20.38;11.80;;;;;;;11.09;66.71;100000.19;5029895;28;20097;-78
2023/03/20 04:50:36;;;;;;;19.85;12.00;;;;;;;11.07;66.63;99995.00;5029762;28;20054;-79
2023/03/20 04:53:02;;;;;;;22.75;12.40;;;;;;;11.06;66.57;99995.06;5030321;28;20058;-78
2023/03/20 04:55:29;;;;;;;20.42;11.50;;;;;;;11.04;66.43;100005.72;5029782;28;20069;-79
2023/03/20 04:57:55;;;;;;;17.05;11.13;;;;;;;11.01;66.47;99990.06;5012062;28;20515;-78
2023/03/20 05:00:22;;;;;;;22.05;12.55;;;;;;;10.98;66.47;100000.75;5029956;28;20432;-79
2023/03/20 05:02:48;;;;;;;23.50;12.52;;;;;;;10.97;66.49;100000.84;5012391;28;20108;-79
2023/03/20 05:05:14;;;;;;;24.10;12.80;;;;;;;10.93;66.56;99995.78;5029558;28;20085;-79
2023/03/20 05:07:41;;;;;;;20.92;12.35;;;;;;;10.89;66.67;99990.75;5029659;28;20077;-79
2023/03/20 05:10:08;;;;;;;23.05;12.60;;;;;;;10.86;66.61;99990.91;5029863;28;20057;-78
2023/03/20 05:12:34;;;;;;;28.65;12.75;;;;;;;10.82;66.60;100003.38;5029923;28;20057;-78
2023/03/20 05:15:01;;;;;;;18.70;11.82;;;;;;;10.77;66.82;99985.19;5029155;28;20533;-78
2023/03/20 05:17:27;;;;;;;19.15;11.82;;;;;;;10.74;66.82;99985.38;5029816;28;20049;-78
2023/03/20 05:19:53;;;;;;;23.02;12.60;;;;;;;10.72;66.92;99987.22;5029846;28;20085;-78
2023/03/20 05:22:20;;;;;;;21.17;12.05;;;;;;;10.69;66.98;99983.00;5029700;28;20084;-79
2023/03/20 05:24:46;;;;;;;20.63;12.73;;;;;;;10.66;66.93;99980.50;5028946;28;20057;-79
2023/03/20 05:27:12;;;;;;;23.23;12.75;;;;;;;10.63;67.15;99977.19;5029175;28;20053;-78
2023/03/20 05:29:39;;;;;;;21.55;12.25;;;;;;;10.60;67.26;99977.34;5029468;28;20080;-79
2023/03/20 05:32:05;;;;;;;24.27;12.80;;;;;;;10.57;67.17;99972.28;5011973;28;20135;-78
2023/03/20 05:34:32;;;;;;;20.92;12.00;;;;;;;10.53;67.23;99980.34;5029716;28;20053;-78
2023/03/20 05:36:58;;;;;;;22.15;13.43;;;;;;;10.51;67.26;99984.81;5028721;28;20097;-78
2023/03/20 05:39:24;;;;;;;21.33;13.30;;;;;;;10.48;67.28;99979.72;5029608;28;20057;-79
2023/03/20 05:41:51;;;;;;;19.30;12.55;;;;;;;10.46;67.46;99986.00;5029520;28;20061;-79
2023/03/20 05:44:17;;;;;;;20.08;12.73;;;;;;;10.41;67.52;99983.56;5029434;28;20111;-79
2023/03/20 05:46:44;;;;;;;20.73;13.00;;;;;;;10.40;67.52;99992.41;5028477;28;20107;-79
2023/03/20 05:49:10;;;;;;;24.25;13.38;;;;;;;10.39;67.67;99993.34;5029561;28;20100;-79
2023/03/20 05:51:37;;;;;;;19.67;12.88;;;;;;;10.37;67.63;99995.19;5029297;28;20474;-79
2023/03/20 05:54:03;;;;;;;20.60;13.05;;;;;;;10.36;67.77;99996.13;5029536;28;20053;-79
2023/03/20 05:56:30;;;;;;;18.90;12.90;;;;;;;10.36;68.10;99993.50;5028739;28;20099;-79
2023/03/20 05:58:56;;;;;;;22.80;12.52;;;;;;;10.35;67.90;99992.63;5028854;28;20435;-79
2023/03/20 06:01:23;;;;;;;22.67;13.27;;;;;;;10.35;68.30;99994.44;5028996;28;20049;-79
2023/03/20 06:03:49;;;;;;;21.13;13.48;;;;;;;10.35;68.17;99999.69;5029383;28;20057;-80
2023/03/20 06:06:16;;;;;;;20.58;13.35;;;;;;;10.35;68.42;99994.44;5028604;28;20508;-78
2023/03/20 06:08:43;;;;;;;25.63;14.55;;;;;;;10.34;68.12;99995.34;5028833;28;20762;-79
2023/03/20 06:11:10;;;;;;;21.02;13.50;;;;;;;10.33;68.19;100004.19;5029068;28;20084;-78
2023/03/20 06:13:37;;;;;;;24.10;14.27;;;;;;;10.31;68.07;99996.34;5029001;28;20151;-78
2023/03/20 06:16:04;;;;;;;23.98;14.02;;;;;;;10.32;68.02;99999.84;5028419;28;20057;-79
2023/03/20 06:18:30;;;;;;;20.98;13.25;;;;;;;10.33;68.33;100001.53;5029244;28;20053;-79
2023/03/20 06:20:57;;;;;;;22.52;14.15;;;;;;;10.34;68.24;99997.97;5029070;28;20065;-78
2023/03/20 06:23:23;;;;;;;22.08;13.07;;;;;;;10.34;68.24;100012.00;5029131;28;20248;-78
2023/03/20 06:25:50;;;;;;;21.98;14.20;;;;;;;10.35;68.29;100008.44;5028508;28;20053;-79
2023/03/20 06:28:16;;;;;;;24.45;14.25;;;;;;;10.35;68.32;100018.94;5011036;28;20064;-80
2023/03/20 06:30:43;;;;;;;22.48;12.98;;;;;;;10.35;68.25;100021.59;5029246;28;20566;-79
2023/03/20 06:33:09;;;;;;;23.45;14.13;;;;;;;10.36;68.43;100023.28;5028693;28;20439;-79
2023/03/20 06:35:36;;;;;;;24.10;14.70;;;;;;;10.37;68.13;100026.78;5031056;28;20053;-78
2023/03/20 06:38:03;;;;;;;23.95;14.55;;;;;;;10.36;68.32;100023.28;5032346;28;20072;-79
2023/03/20 06:40:29;;;;;;;23.33;15.23;;;;;;;10.37;68.31;100030.25;5032611;28;20637;-79
2023/03/20 06:42:55;;;;;;;25.02;14.65;;;;;;;10.37;68.23;100035.53;5014793;28;20123;-79
2023/03/20 06:45:24;;;;;;;29.60;15.50;;;;;;;10.35;68.16;100036.53;5032000;28;20061;-81
2023/03/20 06:47:51;;;;;;;26.90;15.18;;;;;;;10.36;68.16;100033.81;5031796;28;20057;-78
2023/03/20 06:50:17;;;;;;;26.88;15.43;;;;;;;10.36;68.06;100038.22;5032323;28;20053;-79
2023/03/20 06:52:44;;;;;;;27.63;16.48;;;;;;;10.36;68.13;100040.88;5032059;28;20057;-79
2023/03/20 06:55:10;;;;;;;23.00;14.93;;;;;;;10.37;68.40;100032.03;5031849;28;20131;-79
2023/03/20 06:57:37;;;;;;;23.25;15.40;;;;;;;10.37;68.23;100038.16;5014098;28;20091;-78
2023/03/20 07:00:05;;;;;;;24.77;15.30;;;;;;;10.39;68.38;100044.19;5032382;28;20065;-79
2023/03/20 07:02:32;;;;;;;22.27;14.98;;;;;;;10.45;68.21;100048.31;5032219;28;20054;-78
2023/03/20 07:04:58;;;;;;;25.58;15.18;;;;;;;10.48;68.26;100049.94;5031783;28;20061;-79
2023/03/20 07:07:24;;;;;;;22.08;14.35;;;;;;;10.51;68.29;100052.41;5013780;28;20505;-79
2023/03/20 07:09:51;;;;;;;20.63;14.43;;;;;;;10.54;67.93;100052.22;5032525;28;20397;-78
2023/03/20 07:12:21;;;;;;;22.85;13.45;;;;;;;10.54;67.53;100053.09;5032143;28;20585;-78
2023/03/20 07:14:48;;;;;;;18.10;12.05;;;;;;;10.56;67.44;100055.66;5031759;28;20115;-78
2023/03/20 07:17:15;;;;;;;22.58;11.65;;;;;;;10.58;67.38;100053.78;5031434;28;20119;-79
2023/03/20 07:19:41;;;;;;;20.83;12.95;;;;;;;10.59;66.96;100063.41;5031938;28;20072;-79
2023/03/20 07:22:17;;;;;;;21.40;13.55;;;;;;;10.59;67.11;100065.16;5031830;28;20135;-78
2023/03/20 07:24:43;;;;;;;21.15;12.02;;;;;;;10.61;66.70;100063.31;5031431;28;20053;-79
2023/03/20 07:27:12;;;;;;;17.50;10.88;;;;;;;10.63;66.78;100061.44;5031405;28;20104;-79
2023/03/20 07:29:39;;;;;;;13.75;9.93;;;;;;;10.64;66.41;100069.25;5031928;28;20425;-80
2023/03/20 07:32:05;;;;;;;13.77;9.55;;;;;;;10.65;66.50;100064.88;5031260;28;20467;-79
2023/03/20 07:34:31;;;;;;;16.35;9.48;;;;;;;10.66;66.35;100067.38;5031446;28;20085;-79
2023/03/20 07:36:58;;;;;;;13.80;8.48;;;;;;;10.66;66.08;100067.38;5111776;22;20141;-83
2023/03/20 07:39:24;;;;;;;14.73;8.52;;;;;;;10.70;66.22;100065.47;5031939;28;20136;-83
2023/03/20 07:41:51;;;;;;;14.15;8.18;;;;;;;10.72;65.82;100070.66;5032715;28;20057;-83
2023/03/20 07:44:18;;;;;;;12.80;8.27;;;;;;;10.73;65.77;100074.97;5032281;28;20120;-83
2023/03/20 07:46:48;;;;;;;16.10;9.18;;;;;;;10.74;65.74;100067.00;5013172;28;20058;-83
2023/03/20 07:49:17;;;;;;;16.85;9.13;;;;;;;10.76;65.45;100070.41;5032498;28;20112;-83
2023/03/20 07:51:48;;;;;;;14.50;9.52;;;;;;;10.78;65.12;100075.59;5014460;28;20060;-83
2023/03/20 07:54:14;;;;;;;13.10;8.15;;;;;;;10.78;64.86;100073.81;5031934;28;20069;-83
2023/03/20 07:56:42;;;;;;;15.52;8.23;;;;;;;10.77;64.60;100085.25;5012498;28;20085;-83
2023/03/20 07:59:11;;;;;;;12.55;7.60;;;;;;;10.76;64.49;100066.94;5013451;28;20057;-83
2023/03/20 08:01:41;;;;;;;16.63;7.88;;;;;;;10.76;64.27;100065.13;5030592;28;20050;-85
2023/03/20 08:08:01;;;;;;;12.68;6.85;;;;;;;10.84;64.48;100074.41;5007860;28;20061;-80
2023/03/20 08:10:27;;;;;;;10.65;7.10;;;;;;;10.84;64.53;100067.34;5011744;28;20088;-79
2023/03/20 08:12:54;;;;;;;10.95;6.55;;;;;;;10.85;64.52;100061.16;5012327;28;20060;-79
2023/03/20 08:15:21;;;;;;;10.38;6.72;;;;;;;10.88;64.61;100065.41;5011794;28;20445;-80
2023/03/20 08:17:48;;;;;;;12.55;6.90;;;;;;;10.90;64.07;100063.53;5011919;28;20062;-80
2023/03/20 08:20:16;;;;;;;13.93;7.47;;;;;;;10.92;63.91;100070.41;5012136;28;20054;-79
2023/03/20 08:22:45;;;;;;;14.35;7.00;;;;;;;10.93;63.73;100069.50;5012172;28;20100;-79
2023/03/20 08:25:12;;;;;;;15.07;7.30;;;;;;;10.95;64.01;100080.81;5013725;28;20038;-79
2023/03/20 08:27:39;;;;;;;16.23;7.63;;;;;;;10.99;63.87;100086.75;5011519;28;20057;-80
2023/03/20 08:30:06;;;;;;;13.88;7.15;;;;;;;11.03;64.13;100064.56;5012101;28;20046;-79
2023/03/20 08:32:32;;;;;;;11.73;7.47;;;;;;;11.07;63.96;100078.47;5003936;28;20405;-79
2023/03/20 08:34:59;;;;;;;10.68;6.85;;;;;;;11.11;63.59;100071.22;5011487;28;20074;-79
2023/03/20 08:37:26;;;;;;;13.50;7.15;;;;;;;11.17;63.35;100070.88;5002499;28;20521;-79
2023/03/20 08:39:55;;;;;;;15.93;7.28;;;;;;;11.19;63.18;100080.44;5011655;28;20053;-78
2023/03/20 08:42:22;;;;;;;12.18;7.38;;;;;;;11.27;63.39;100076.50;5011656;28;20129;-79
2023/03/20 08:44:49;;;;;;;14.43;7.07;;;;;;;11.30;63.12;100074.56;5011552;28;20132;-79
2023/03/20 08:47:16;;;;;;;14.50;7.60;;;;;;;11.36;62.90;100077.78;5011108;28;20058;-79
2023/03/20 08:49:42;;;;;;;11.43;7.00;;;;;;;11.40;63.01;100076.69;5011541;28;20061;-80
2023/03/20 08:52:09;;;;;;;14.90;7.75;;;;;;;11.46;62.88;100081.63;5012447;28;20081;-80
2023/03/20 08:54:35;;;;;;;16.10;8.25;;;;;;;11.51;62.71;100071.66;5003953;28;20057;-79
2023/03/20 08:57:02;;;;;;;12.68;7.18;;;;;;;11.55;62.58;100080.25;5010750;28;20085;-80
2023/03/20 08:59:28;;;;;;;15.43;7.82;;;;;;;11.58;62.38;100075.66;5011501;28;20505;-79
2023/03/20 09:01:55;;;;;;;14.50;7.45;;;;;;;11.63;62.68;100071.91;5011575;28;20054;-80
2023/03/20 09:04:21;;;;;;;12.80;7.78;;;;;;;11.68;62.41;100072.50;5011476;28;20129;-79
2023/03/20 09:06:49;;;;;;;18.55;7.50;;;;;;;11.71;61.13;100077.59;5010639;28;20137;-79
2023/03/20 09:09:18;;;;;;;13.38;7.65;;;;;;;11.72;60.57;100077.53;5011195;28;20062;-80
2023/03/20 09:11:45;;;;;;;18.52;8.00;;;;;;;11.72;60.00;100074.88;5011403;28;20056;-79
2023/03/20 09:14:11;;;;;;;13.48;7.68;;;;;;;11.73;60.36;100078.34;5011366;28;20053;-80
2023/03/20 09:16:38;;;;;;;13.32;7.00;;;;;;;11.71;60.00;100082.88;5010814;28;20070;-79
2023/03/20 09:19:05;;;;;;;14.30;7.60;;;;;;;11.71;60.03;100075.81;5011620;28;20200;-78
2023/03/20 09:21:31;;;;;;;14.20;6.57;;;;;;;11.72;60.27;100087.22;5011040;28;20142;-78
2023/03/20 09:23:58;;;;;;;10.80;6.13;;;;;;;11.72;59.59;100084.56;5011151;28;20442;-79
2023/03/20 09:26:24;;;;;;;11.40;6.35;;;;;;;11.75;59.50;100087.03;5010911;28;20054;-79
2023/03/20 09:28:51;;;;;;;12.60;6.30;;;;;;;11.76;59.11;100090.50;5005470;28;20060;-79
2023/03/20 09:31:17;;;;;;;12.93;6.88;;;;;;;11.78;58.92;100094.75;5009866;28;20137;-79
2023/03/20 09:33:44;;;;;;;13.75;6.20;;;;;;;11.79;58.66;100093.84;5011200;28;20056;-79
2023/03/20 09:36:11;;;;;;;13.63;6.03;;;;;;;11.79;58.08;100096.50;5010511;28;20073;-79
2023/03/20 09:38:40;;;;;;;9.48;5.57;;;;;;;11.80;58.53;100092.91;5003102;28;20161;-79
2023/03/20 09:41:17;;;;;;;9.85;5.55;;;;;;;11.79;56.15;100095.63;5010562;28;20046;-79
2023/03/20 09:43:44;;;;;;;14.68;6.25;;;;;;;11.84;58.37;100096.22;5010887;28;20089;-79
2023/03/20 09:46:37;;;;;;;10.48;5.20;;;;;;;11.84;57.95;100102.34;5010415;28;20056;-79
2023/03/20 09:49:22;;;;;;;10.23;5.32;;;;;;;11.90;55.90;100089.75;5010832;28;20490;-79
2023/03/20 09:52:06;;;;;;;10.45;5.65;;;;;;;11.96;56.52;100084.13;5004988;28;20050;-78
2023/03/20 09:54:40;;;;;;;12.27;5.43;;;;;;;12.03;57.58;100096.00;5010941;28;20208;-79
2023/03/20 09:57:34;;;;;;;10.25;5.30;;;;;;;12.11;57.72;100085.03;5010420;28;20054;-79
2023/03/20 10:00:06;;;;;;;10.93;5.57;;;;;;;12.17;57.87;100097.88;5010715;28;20482;-79
2023/03/20 10:02:48;;;;;;;12.05;5.47;;;;;;;12.22;57.08;100084.41;5010793;28;20050;-79
2023/03/20 10:05:30;;;;;;;9.43;5.18;;;;;;;12.28;55.77;100091.97;5010435;28;20060;-79
2023/03/20 10:08:00;;;;;;;9.00;5.55;;;;;;;12.33;56.61;100092.53;5005556;28;20050;-80
2023/03/20 10:11:15;;;;;;;12.45;5.32;;;;;;;12.32;55.86;100072.38;5013097;28;20490;-79
2023/03/20 10:13:57;;;;;;;10.27;5.88;;;;;;;12.37;56.17;100078.22;4996140;28;20766;-79
2023/03/20 10:16:52;;;;;;;9.38;5.15;;;;;;;12.41;55.66;100081.53;5014451;28;20050;-78
2023/03/20 10:19:28;;;;;;;8.93;5.05;;;;;;;12.47;55.15;100072.41;4994796;28;20058;-78
2023/03/20 10:22:01;;;;;;;9.75;5.00;;;;;;;12.50;55.06;100067.81;5014275;28;20096;-80
2023/03/20 10:24:43;;;;;;;10.70;5.25;;;;;;;12.58;55.69;100066.47;5014257;28;20053;-80
2023/03/20 10:27:32;;;;;;;8.25;4.72;;;;;;;12.59;54.30;100066.38;5011042;28;20053;-80
2023/03/20 10:30:24;;;;;;;8.43;4.50;;;;;;;12.63;53.84;100067.88;5014373;28;20128;-79
2023/03/20 10:33:25;;;;;;;6.55;4.45;;;;;;;12.64;50.40;100064.31;5014084;28;20050;-79
2023/03/20 10:36:21;;;;;;;7.80;4.13;;;;;;;12.64;52.59;100059.03;5013847;28;20048;-79
2023/03/20 10:39:11;;;;;;;10.25;4.00;;;;;;;12.67;53.11;100070.34;4991574;28;20049;-79
2023/03/20 10:41:42;;;;;;;9.07;4.18;;;;;;;12.74;55.31;100059.31;4988284;28;20042;-79
2023/03/20 10:44:15;;;;;;;9.27;4.53;;;;;;;12.79;53.87;100061.69;5010941;28;20058;-80
2023/03/20 10:46:50;;;;;;;7.97;4.15;;;;;;;12.83;54.08;100052.63;5012927;28;20050;-79
2023/03/20 10:49:35;;;;;;;7.22;3.80;;;;;;;12.89;54.43;100054.88;5014149;28;20093;-79
2023/03/20 10:52:08;;;;;;;8.35;4.25;;;;;;;12.88;53.75;100050.53;5013962;28;20077;-79
2023/03/20 10:54:42;;;;;;;10.05;4.07;;;;;;;12.87;53.60;100048.81;5006387;28;20486;-81
2023/03/20 10:57:23;;;;;;;7.22;3.63;;;;;;;12.90;54.26;100059.22;5013516;28;20057;-79
2023/03/20 10:59:51;;;;;;;4.47;3.50;;;;;;;12.94;54.29;100057.25;5013794;28;20445;-78
2023/03/20 11:02:22;;;;;;;6.82;3.38;;;;;;;12.92;53.27;100063.53;5011911;28;20054;-80
2023/03/20 11:04:49;;;;;;;8.48;3.95;;;;;;;12.92;53.77;100055.63;5013443;28;20104;-79
2023/03/20 11:07:31;;;;;;;10.52;3.90;;;;;;;12.86;52.88;100055.06;5013044;28;20441;-79
2023/03/20 11:10:03;;;;;;;5.97;3.10;;;;;;;12.81;53.03;100048.34;5013828;28;20053;-79
2023/03/20 11:12:36;;;;;;;7.15;3.70;;;;;;;12.76;52.71;100053.94;5013833;28;20089;-80
2023/03/20 11:15:18;;;;;;;6.70;3.53;;;;;;;12.70;52.04;100060.44;5013263;28;20104;-77
2023/03/20 11:17:56;;;;;;;7.22;3.55;;;;;;;12.66;52.15;100050.16;5006705;28;20092;-79
2023/03/20 11:20:25;;;;;;;8.15;4.00;;;;;;;12.63;53.26;100053.81;5011897;28;20053;-79
2023/03/20 11:23:16;;;;;;;8.88;3.17;;;;;;;12.54;51.23;100052.59;5012416;28;20085;-80
2023/03/20 11:26:02;;;;;;;5.15;2.90;;;;;;;12.50;51.75;100056.38;5013039;28;20647;-77
2023/03/20 11:28:41;;;;;;;7.82;3.05;;;;;;;12.47;53.10;100052.13;5012886;28;20062;-79
2023/03/20 11:31:18;;;;;;;7.47;3.33;;;;;;;12.43;53.43;100052.41;5012980;28;20100;-79
2023/03/20 11:33:51;;;;;;;9.98;3.20;;;;;;;12.41;53.13;100049.00;5012980;28;20508;-79
2023/03/20 11:36:22;;;;;;;9.68;3.20;;;;;;;12.42;54.49;100042.78;5012855;28;20100;-80
2023/03/20 11:38:57;;;;;;;6.40;2.92;;;;;;;12.42;54.36;100040.16;5012611;28;20060;-80